sensor_id;sensor_type;location;lat;lon;timestamp;P1;durP1;ratioP1;P2;durP2;ratioP2
15502;SDS011;7853;52.186;5.948;2023-07-13T00:03:48;4.10;;;1.91;;
15502;SDS011;7853;52.186;5.948;2023-07-13T00:03:48;3.53;;;1.56;;
15502;SDS011;7853;52.186;5.948;2023-07-13T00:04:13;5.07;;;1.91;;
15502;SDS011;7853;52.186;5.948;2023-07-13T00:04:59;4.32;;;1.61;;
15502;SDS011;7853;52.186;5.948;2023-07-13T00:05:46;3.77;;;1.72;;
15502;SDS011;7853;52.186;5.948;2023-07-13T00:06:39;4.44;;;1.81;;
15502;SDS011;7853;52.186;5.948;2023-07-13T00:07:36;3.91;;;1.57;;
15502;SDS011;7853;52.186;5.948;2023-07-13T00:08:34;4.14;;;1.96;;
15502;SDS011;7853;52.186;5.948;2023-07-13T00:09:33;4.19;;;1.81;;
15502;SDS011;7853;52.186;5.948;2023-07-13T00:10:33;4.61;;;1.71;;
15502;SDS011;7853;52.186;5.948;2023-07-13T00:11:33;4.01;;;1.73;;
15502;SDS011;7853;52.186;5.948;2023-07-13T00:12:33;5.17;;;1.88;;
15502;SDS011;7853;52.186;5.948;2023-07-13T00:13:33;5.35;;;1.66;;
15502;SDS011;7853;52.186;5.948;2023-07-13T00:14:33;4.15;;;1.74;;
15502;SDS011;7853;52.186;5.948;2023-07-13T00:15:33;4.39;;;1.87;;
15502;SDS011;7853;52.186;5.948;2023-07-13T00:16:33;5.05;;;1.91;;
15502;SDS011;7853;52.186;5.948;2023-07-13T00:17:33;4.15;;;1.75;;
15502;SDS011;7853;52.186;5.948;2023-07-13T00:18:33;3.32;;;1.64;;
15502;SDS011;7853;52.186;5.948;2023-07-13T00:19:33;4.41;;;1.72;;
15502;SDS011;7853;52.186;5.948;2023-07-13T00:20:33;3.01;;;1.65;;
15502;SDS011;7853;52.186;5.948;2023-07-13T00:21:33;5.09;;;2.14;;
15502;SDS011;7853;52.186;5.948;2023-07-13T00:22:33;4.99;;;1.76;;
15502;SDS011;7853;52.186;5.948;2023-07-13T00:23:34;4.14;;;1.87;;
15502;SDS011;7853;52.186;5.948;2023-07-13T00:24:33;4.12;;;1.70;;
15502;SDS011;7853;52.186;5.948;2023-07-13T00:25:33;4.03;;;1.72;;
15502;SDS011;7853;52.186;5.948;2023-07-13T00:26:33;5.31;;;1.91;;
15502;SDS011;7853;52.186;5.948;2023-07-13T00:27:33;4.76;;;1.87;;
15502;SDS011;7853;52.186;5.948;2023-07-13T00:28:34;4.30;;;1.86;;
15502;SDS011;7853;52.186;5.948;2023-07-13T00:29:34;5.27;;;2.10;;
15502;SDS011;7853;52.186;5.948;2023-07-13T00:30:34;5.03;;;1.87;;
15502;SDS011;7853;52.186;5.948;2023-07-13T00:31:34;5.92;;;1.85;;
15502;SDS011;7853;52.186;5.948;2023-07-13T00:32:34;4.63;;;1.74;;
15502;SDS011;7853;52.186;5.948;2023-07-13T00:33:34;5.13;;;1.85;;
15502;SDS011;7853;52.186;5.948;2023-07-13T00:34:34;7.25;;;2.25;;
15502;SDS011;7853;52.186;5.948;2023-07-13T00:35:34;4.15;;;1.73;;
15502;SDS011;7853;52.186;5.948;2023-07-13T00:36:34;4.89;;;1.81;;
15502;SDS011;7853;52.186;5.948;2023-07-13T00:37:34;5.17;;;1.86;;
15502;SDS011;7853;52.186;5.948;2023-07-13T00:38:34;3.91;;;1.84;;
15502;SDS011;7853;52.186;5.948;2023-07-13T00:39:34;4.03;;;1.87;;
15502;SDS011;7853;52.186;5.948;2023-07-13T00:40:34;3.88;;;1.73;;
15502;SDS011;7853;52.186;5.948;2023-07-13T00:41:34;4.55;;;1.81;;
15502;SDS011;7853;52.186;5.948;2023-07-13T00:42:34;3.92;;;1.61;;
15502;SDS011;7853;52.186;5.948;2023-07-13T00:43:34;3.69;;;1.71;;
15502;SDS011;7853;52.186;5.948;2023-07-13T00:44:34;3.22;;;1.60;;
15502;SDS011;7853;52.186;5.948;2023-07-13T00:46:47;3.54;;;1.76;;
15502;SDS011;7853;52.186;5.948;2023-07-13T00:47:40;4.14;;;1.85;;
15502;SDS011;7853;52.186;5.948;2023-07-13T00:48:37;3.81;;;1.55;;
15502;SDS011;7853;52.186;5.948;2023-07-13T00:49:35;3.52;;;1.68;;
15502;SDS011;7853;52.186;5.948;2023-07-13T00:50:34;3.23;;;1.61;;
15502;SDS011;7853;52.186;5.948;2023-07-13T00:51:34;5.25;;;1.77;;
15502;SDS011;7853;52.186;5.948;2023-07-13T00:52:34;5.29;;;1.61;;
15502;SDS011;7853;52.186;5.948;2023-07-13T00:53:33;4.42;;;1.80;;
15502;SDS011;7853;52.186;5.948;2023-07-13T00:54:35;4.67;;;1.86;;
15502;SDS011;7853;52.186;5.948;2023-07-13T00:55:33;4.07;;;1.78;;
15502;SDS011;7853;52.186;5.948;2023-07-13T00:56:33;5.39;;;1.90;;
15502;SDS011;7853;52.186;5.948;2023-07-13T00:57:33;4.88;;;1.70;;
15502;SDS011;7853;52.186;5.948;2023-07-13T00:58:34;5.40;;;1.95;;
15502;SDS011;7853;52.186;5.948;2023-07-13T00:59:34;4.01;;;1.64;;
15502;SDS011;7853;52.186;5.948;2023-07-13T01:00:35;4.97;;;1.69;;
15502;SDS011;7853;52.186;5.948;2023-07-13T01:01:34;3.96;;;1.77;;
15502;SDS011;7853;52.186;5.948;2023-07-13T01:02:34;3.49;;;1.68;;
15502;SDS011;7853;52.186;5.948;2023-07-13T01:03:34;4.39;;;1.73;;
15502;SDS011;7853;52.186;5.948;2023-07-13T01:04:34;4.11;;;1.51;;
15502;SDS011;7853;52.186;5.948;2023-07-13T01:05:34;4.56;;;1.73;;
15502;SDS011;7853;52.186;5.948;2023-07-13T01:06:34;6.09;;;2.14;;
15502;SDS011;7853;52.186;5.948;2023-07-13T01:07:34;4.80;;;1.69;;
15502;SDS011;7853;52.186;5.948;2023-07-13T01:08:34;4.42;;;1.67;;
15502;SDS011;7853;52.186;5.948;2023-07-13T01:09:34;5.30;;;1.78;;
15502;SDS011;7853;52.186;5.948;2023-07-13T01:10:34;4.77;;;1.68;;
15502;SDS011;7853;52.186;5.948;2023-07-13T01:11:34;3.56;;;1.62;;
15502;SDS011;7853;52.186;5.948;2023-07-13T01:12:34;4.13;;;1.85;;
15502;SDS011;7853;52.186;5.948;2023-07-13T01:13:34;4.36;;;1.76;;
15502;SDS011;7853;52.186;5.948;2023-07-13T01:14:34;5.41;;;1.78;;
15502;SDS011;7853;52.186;5.948;2023-07-13T01:15:35;3.63;;;1.68;;
15502;SDS011;7853;52.186;5.948;2023-07-13T01:16:35;3.81;;;1.86;;
15502;SDS011;7853;52.186;5.948;2023-07-13T01:17:34;5.21;;;2.00;;
15502;SDS011;7853;52.186;5.948;2023-07-13T01:18:34;4.39;;;1.66;;
15502;SDS011;7853;52.186;5.948;2023-07-13T01:19:35;3.77;;;1.64;;
15502;SDS011;7853;52.186;5.948;2023-07-13T01:20:34;4.36;;;1.93;;
15502;SDS011;7853;52.186;5.948;2023-07-13T01:21:34;3.89;;;1.88;;
15502;SDS011;7853;52.186;5.948;2023-07-13T01:22:34;3.95;;;1.85;;
15502;SDS011;7853;52.186;5.948;2023-07-13T01:23:34;4.49;;;1.78;;
15502;SDS011;7853;52.186;5.948;2023-07-13T01:24:35;3.83;;;1.76;;
15502;SDS011;7853;52.186;5.948;2023-07-13T01:25:34;3.74;;;1.84;;
15502;SDS011;7853;52.186;5.948;2023-07-13T01:26:34;3.68;;;1.66;;
15502;SDS011;7853;52.186;5.948;2023-07-13T01:27:34;6.13;;;1.97;;
15502;SDS011;7853;52.186;5.948;2023-07-13T01:28:34;4.33;;;1.66;;
15502;SDS011;7853;52.186;5.948;2023-07-13T01:29:35;2.73;;;1.71;;
15502;SDS011;7853;52.186;5.948;2023-07-13T01:30:34;3.98;;;1.64;;
15502;SDS011;7853;52.186;5.948;2023-07-13T01:31:34;3.41;;;1.80;;
15502;SDS011;7853;52.186;5.948;2023-07-13T01:32:34;3.27;;;1.51;;
15502;SDS011;7853;52.186;5.948;2023-07-13T01:33:36;4.05;;;1.87;;
15502;SDS011;7853;52.186;5.948;2023-07-13T01:34:34;3.79;;;1.78;;
15502;SDS011;7853;52.186;5.948;2023-07-13T01:35:35;5.47;;;1.87;;
15502;SDS011;7853;52.186;5.948;2023-07-13T01:36:34;4.58;;;1.84;;
15502;SDS011;7853;52.186;5.948;2023-07-13T01:37:34;3.35;;;1.78;;
15502;SDS011;7853;52.186;5.948;2023-07-13T01:38:35;4.20;;;1.83;;
15502;SDS011;7853;52.186;5.948;2023-07-13T01:39:35;4.09;;;1.63;;
15502;SDS011;7853;52.186;5.948;2023-07-13T01:40:35;5.07;;;1.72;;
15502;SDS011;7853;52.186;5.948;2023-07-13T01:41:34;3.09;;;1.89;;
15502;SDS011;7853;52.186;5.948;2023-07-13T01:42:34;4.38;;;1.70;;
15502;SDS011;7853;52.186;5.948;2023-07-13T01:43:34;4.40;;;1.69;;
15502;SDS011;7853;52.186;5.948;2023-07-13T01:44:34;4.23;;;1.63;;
15502;SDS011;7853;52.186;5.948;2023-07-13T01:45:34;3.59;;;1.58;;
15502;SDS011;7853;52.186;5.948;2023-07-13T01:46:34;3.52;;;1.49;;
15502;SDS011;7853;52.186;5.948;2023-07-13T01:47:34;4.23;;;1.71;;
15502;SDS011;7853;52.186;5.948;2023-07-13T01:48:34;6.05;;;1.87;;
15502;SDS011;7853;52.186;5.948;2023-07-13T01:49:34;4.66;;;1.67;;
15502;SDS011;7853;52.186;5.948;2023-07-13T01:50:35;3.64;;;1.67;;
15502;SDS011;7853;52.186;5.948;2023-07-13T01:51:34;5.33;;;1.86;;
15502;SDS011;7853;52.186;5.948;2023-07-13T01:52:34;4.33;;;1.59;;
15502;SDS011;7853;52.186;5.948;2023-07-13T01:53:34;4.08;;;1.84;;
15502;SDS011;7853;52.186;5.948;2023-07-13T01:54:34;5.94;;;2.29;;
15502;SDS011;7853;52.186;5.948;2023-07-13T01:55:35;5.44;;;1.84;;
15502;SDS011;7853;52.186;5.948;2023-07-13T01:56:34;3.80;;;1.79;;
15502;SDS011;7853;52.186;5.948;2023-07-13T01:57:34;3.83;;;1.78;;
15502;SDS011;7853;52.186;5.948;2023-07-13T01:58:34;4.13;;;1.67;;
15502;SDS011;7853;52.186;5.948;2023-07-13T01:59:34;3.45;;;1.68;;
15502;SDS011;7853;52.186;5.948;2023-07-13T02:00:34;6.06;;;2.42;;
15502;SDS011;7853;52.186;5.948;2023-07-13T02:01:34;3.23;;;1.74;;
15502;SDS011;7853;52.186;5.948;2023-07-13T02:02:34;4.41;;;1.67;;
15502;SDS011;7853;52.186;5.948;2023-07-13T02:03:34;4.31;;;1.79;;
15502;SDS011;7853;52.186;5.948;2023-07-13T02:04:34;4.84;;;1.90;;
15502;SDS011;7853;52.186;5.948;2023-07-13T02:05:34;4.37;;;1.82;;
15502;SDS011;7853;52.186;5.948;2023-07-13T02:06:34;3.76;;;1.76;;
15502;SDS011;7853;52.186;5.948;2023-07-13T02:07:35;3.53;;;1.82;;
15502;SDS011;7853;52.186;5.948;2023-07-13T02:08:35;3.34;;;1.98;;
15502;SDS011;7853;52.186;5.948;2023-07-13T02:09:34;3.47;;;1.69;;
15502;SDS011;7853;52.186;5.948;2023-07-13T02:10:34;6.04;;;1.95;;
15502;SDS011;7853;52.186;5.948;2023-07-13T02:11:34;4.48;;;1.74;;
15502;SDS011;7853;52.186;5.948;2023-07-13T02:12:35;4.84;;;1.74;;
15502;SDS011;7853;52.186;5.948;2023-07-13T02:13:34;3.99;;;1.60;;
15502;SDS011;7853;52.186;5.948;2023-07-13T02:14:35;4.33;;;1.73;;
15502;SDS011;7853;52.186;5.948;2023-07-13T02:15:37;4.50;;;1.78;;
15502;SDS011;7853;52.186;5.948;2023-07-13T02:16:34;3.78;;;1.76;;
15502;SDS011;7853;52.186;5.948;2023-07-13T02:17:35;3.41;;;1.56;;
15502;SDS011;7853;52.186;5.948;2023-07-13T02:18:34;4.24;;;1.79;;
15502;SDS011;7853;52.186;5.948;2023-07-13T02:19:34;6.45;;;1.81;;
15502;SDS011;7853;52.186;5.948;2023-07-13T02:20:35;3.46;;;1.55;;
15502;SDS011;7853;52.186;5.948;2023-07-13T02:21:34;4.84;;;1.87;;
15502;SDS011;7853;52.186;5.948;2023-07-13T02:22:34;3.71;;;2.10;;
15502;SDS011;7853;52.186;5.948;2023-07-13T02:23:34;3.90;;;1.76;;
15502;SDS011;7853;52.186;5.948;2023-07-13T02:24:34;4.05;;;1.95;;
15502;SDS011;7853;52.186;5.948;2023-07-13T02:25:34;4.88;;;1.82;;
15502;SDS011;7853;52.186;5.948;2023-07-13T02:26:35;6.02;;;1.80;;
15502;SDS011;7853;52.186;5.948;2023-07-13T02:27:34;4.93;;;1.87;;
15502;SDS011;7853;52.186;5.948;2023-07-13T02:28:34;4.05;;;1.74;;
15502;SDS011;7853;52.186;5.948;2023-07-13T02:29:34;3.19;;;1.62;;
15502;SDS011;7853;52.186;5.948;2023-07-13T02:30:35;4.03;;;1.59;;
15502;SDS011;7853;52.186;5.948;2023-07-13T02:31:34;3.56;;;1.73;;
15502;SDS011;7853;52.186;5.948;2023-07-13T02:32:35;2.37;;;1.55;;
15502;SDS011;7853;52.186;5.948;2023-07-13T02:33:35;3.79;;;1.71;;
15502;SDS011;7853;52.186;5.948;2023-07-13T02:34:35;3.75;;;1.63;;
15502;SDS011;7853;52.186;5.948;2023-07-13T02:35:34;3.66;;;1.64;;
15502;SDS011;7853;52.186;5.948;2023-07-13T02:36:34;3.18;;;1.52;;
15502;SDS011;7853;52.186;5.948;2023-07-13T02:37:35;3.18;;;1.59;;
15502;SDS011;7853;52.186;5.948;2023-07-13T02:38:35;3.38;;;1.71;;
15502;SDS011;7853;52.186;5.948;2023-07-13T02:39:34;3.81;;;1.74;;
15502;SDS011;7853;52.186;5.948;2023-07-13T02:40:34;4.74;;;1.72;;
15502;SDS011;7853;52.186;5.948;2023-07-13T02:41:34;3.79;;;1.77;;
15502;SDS011;7853;52.186;5.948;2023-07-13T02:42:34;2.74;;;1.55;;
15502;SDS011;7853;52.186;5.948;2023-07-13T02:43:35;3.32;;;1.63;;
15502;SDS011;7853;52.186;5.948;2023-07-13T02:44:34;4.04;;;1.61;;
15502;SDS011;7853;52.186;5.948;2023-07-13T02:45:35;3.54;;;1.64;;
15502;SDS011;7853;52.186;5.948;2023-07-13T02:46:35;3.01;;;1.52;;
15502;SDS011;7853;52.186;5.948;2023-07-13T02:47:35;3.12;;;1.65;;
15502;SDS011;7853;52.186;5.948;2023-07-13T02:48:35;4.49;;;1.61;;
15502;SDS011;7853;52.186;5.948;2023-07-13T02:49:34;4.35;;;1.77;;
15502;SDS011;7853;52.186;5.948;2023-07-13T02:50:34;3.60;;;1.51;;
15502;SDS011;7853;52.186;5.948;2023-07-13T02:51:34;4.64;;;1.84;;
15502;SDS011;7853;52.186;5.948;2023-07-13T02:52:34;4.46;;;1.96;;
15502;SDS011;7853;52.186;5.948;2023-07-13T02:53:35;4.23;;;1.63;;
15502;SDS011;7853;52.186;5.948;2023-07-13T02:54:34;4.94;;;1.98;;
15502;SDS011;7853;52.186;5.948;2023-07-13T02:55:35;4.16;;;1.76;;
15502;SDS011;7853;52.186;5.948;2023-07-13T02:56:34;4.45;;;1.74;;
15502;SDS011;7853;52.186;5.948;2023-07-13T02:57:34;5.53;;;2.08;;
15502;SDS011;7853;52.186;5.948;2023-07-13T02:58:35;3.86;;;1.87;;
15502;SDS011;7853;52.186;5.948;2023-07-13T02:59:35;2.93;;;1.62;;
15502;SDS011;7853;52.186;5.948;2023-07-13T03:00:37;3.97;;;1.73;;
15502;SDS011;7853;52.186;5.948;2023-07-13T03:01:35;3.78;;;1.89;;
15502;SDS011;7853;52.186;5.948;2023-07-13T03:02:35;4.17;;;1.82;;
15502;SDS011;7853;52.186;5.948;2023-07-13T03:03:35;3.86;;;1.63;;
15502;SDS011;7853;52.186;5.948;2023-07-13T03:04:35;4.39;;;1.79;;
15502;SDS011;7853;52.186;5.948;2023-07-13T03:05:36;3.27;;;1.76;;
15502;SDS011;7853;52.186;5.948;2023-07-13T03:06:34;3.50;;;1.96;;
15502;SDS011;7853;52.186;5.948;2023-07-13T03:07:34;4.08;;;1.78;;
15502;SDS011;7853;52.186;5.948;2023-07-13T03:08:35;4.31;;;1.81;;
15502;SDS011;7853;52.186;5.948;2023-07-13T03:09:35;3.12;;;1.73;;
15502;SDS011;7853;52.186;5.948;2023-07-13T03:10:35;4.11;;;1.77;;
15502;SDS011;7853;52.186;5.948;2023-07-13T03:11:34;4.62;;;2.03;;
15502;SDS011;7853;52.186;5.948;2023-07-13T03:12:35;4.80;;;1.93;;
15502;SDS011;7853;52.186;5.948;2023-07-13T03:13:34;3.84;;;1.76;;
15502;SDS011;7853;52.186;5.948;2023-07-13T03:14:35;4.03;;;1.66;;
15502;SDS011;7853;52.186;5.948;2023-07-13T03:15:34;3.65;;;1.87;;
15502;SDS011;7853;52.186;5.948;2023-07-13T03:16:34;3.67;;;1.79;;
15502;SDS011;7853;52.186;5.948;2023-07-13T03:17:34;3.99;;;1.74;;
15502;SDS011;7853;52.186;5.948;2023-07-13T03:18:35;5.63;;;1.94;;
15502;SDS011;7853;52.186;5.948;2023-07-13T03:19:35;4.91;;;1.89;;
15502;SDS011;7853;52.186;5.948;2023-07-13T03:20:34;4.38;;;1.94;;
15502;SDS011;7853;52.186;5.948;2023-07-13T03:21:35;3.99;;;1.75;;
15502;SDS011;7853;52.186;5.948;2023-07-13T03:22:34;4.00;;;1.84;;
15502;SDS011;7853;52.186;5.948;2023-07-13T03:23:34;4.61;;;1.85;;
15502;SDS011;7853;52.186;5.948;2023-07-13T03:24:35;3.24;;;1.65;;
15502;SDS011;7853;52.186;5.948;2023-07-13T03:25:35;3.68;;;1.71;;
15502;SDS011;7853;52.186;5.948;2023-07-13T03:26:35;4.14;;;1.76;;
15502;SDS011;7853;52.186;5.948;2023-07-13T03:27:34;3.51;;;1.71;;
15502;SDS011;7853;52.186;5.948;2023-07-13T03:28:35;4.52;;;1.99;;
15502;SDS011;7853;52.186;5.948;2023-07-13T03:29:35;4.66;;;2.01;;
15502;SDS011;7853;52.186;5.948;2023-07-13T03:30:34;4.10;;;1.74;;
15502;SDS011;7853;52.186;5.948;2023-07-13T03:31:35;3.54;;;1.87;;
15502;SDS011;7853;52.186;5.948;2023-07-13T03:32:35;3.56;;;1.78;;
15502;SDS011;7853;52.186;5.948;2023-07-13T03:33:35;3.48;;;1.98;;
15502;SDS011;7853;52.186;5.948;2023-07-13T03:34:34;3.44;;;1.94;;
15502;SDS011;7853;52.186;5.948;2023-07-13T03:35:35;4.17;;;1.73;;
15502;SDS011;7853;52.186;5.948;2023-07-13T03:36:34;6.58;;;1.97;;
15502;SDS011;7853;52.186;5.948;2023-07-13T03:37:35;4.38;;;1.83;;
15502;SDS011;7853;52.186;5.948;2023-07-13T03:38:35;3.37;;;1.90;;
15502;SDS011;7853;52.186;5.948;2023-07-13T03:39:35;3.24;;;1.71;;
15502;SDS011;7853;52.186;5.948;2023-07-13T03:40:34;3.64;;;2.02;;
15502;SDS011;7853;52.186;5.948;2023-07-13T03:41:35;3.81;;;2.07;;
15502;SDS011;7853;52.186;5.948;2023-07-13T03:42:34;5.69;;;2.17;;
15502;SDS011;7853;52.186;5.948;2023-07-13T03:43:34;3.70;;;1.86;;
15502;SDS011;7853;52.186;5.948;2023-07-13T03:44:35;3.45;;;1.72;;
15502;SDS011;7853;52.186;5.948;2023-07-13T03:45:34;5.43;;;1.89;;
15502;SDS011;7853;52.186;5.948;2023-07-13T03:46:34;5.71;;;1.99;;
15502;SDS011;7853;52.186;5.948;2023-07-13T03:47:35;4.92;;;2.07;;
15502;SDS011;7853;52.186;5.948;2023-07-13T03:48:35;4.27;;;1.75;;
15502;SDS011;7853;52.186;5.948;2023-07-13T03:49:34;4.55;;;1.94;;
15502;SDS011;7853;52.186;5.948;2023-07-13T03:50:35;5.35;;;2.08;;
15502;SDS011;7853;52.186;5.948;2023-07-13T03:51:35;5.15;;;1.79;;
15502;SDS011;7853;52.186;5.948;2023-07-13T03:52:34;4.24;;;1.85;;
15502;SDS011;7853;52.186;5.948;2023-07-13T03:53:37;4.73;;;1.88;;
15502;SDS011;7853;52.186;5.948;2023-07-13T03:54:34;6.25;;;2.20;;
15502;SDS011;7853;52.186;5.948;2023-07-13T03:55:34;4.78;;;1.89;;
15502;SDS011;7853;52.186;5.948;2023-07-13T03:56:35;3.93;;;1.99;;
15502;SDS011;7853;52.186;5.948;2023-07-13T03:57:35;4.22;;;1.81;;
15502;SDS011;7853;52.186;5.948;2023-07-13T03:58:35;4.58;;;2.01;;
15502;SDS011;7853;52.186;5.948;2023-07-13T03:59:35;5.07;;;2.61;;
15502;SDS011;7853;52.186;5.948;2023-07-13T04:00:35;4.11;;;2.05;;
15502;SDS011;7853;52.186;5.948;2023-07-13T04:01:35;4.55;;;2.01;;
15502;SDS011;7853;52.186;5.948;2023-07-13T04:02:35;4.53;;;1.91;;
15502;SDS011;7853;52.186;5.948;2023-07-13T04:03:35;4.59;;;2.02;;
15502;SDS011;7853;52.186;5.948;2023-07-13T04:04:35;4.22;;;1.92;;
15502;SDS011;7853;52.186;5.948;2023-07-13T04:05:34;4.88;;;2.10;;
15502;SDS011;7853;52.186;5.948;2023-07-13T04:06:35;4.74;;;2.02;;
15502;SDS011;7853;52.186;5.948;2023-07-13T04:07:34;5.23;;;2.00;;
15502;SDS011;7853;52.186;5.948;2023-07-13T04:08:35;5.43;;;2.09;;
15502;SDS011;7853;52.186;5.948;2023-07-13T04:09:35;6.05;;;2.34;;
15502;SDS011;7853;52.186;5.948;2023-07-13T04:10:35;4.68;;;2.20;;
15502;SDS011;7853;52.186;5.948;2023-07-13T04:11:35;3.65;;;2.03;;
15502;SDS011;7853;52.186;5.948;2023-07-13T04:12:34;4.61;;;1.79;;
15502;SDS011;7853;52.186;5.948;2023-07-13T04:13:35;4.60;;;2.09;;
15502;SDS011;7853;52.186;5.948;2023-07-13T04:14:35;5.19;;;2.13;;
15502;SDS011;7853;52.186;5.948;2023-07-13T04:15:35;5.04;;;1.88;;
15502;SDS011;7853;52.186;5.948;2023-07-13T04:16:35;6.14;;;2.04;;
15502;SDS011;7853;52.186;5.948;2023-07-13T04:17:35;4.33;;;2.01;;
15502;SDS011;7853;52.186;5.948;2023-07-13T04:18:34;4.14;;;1.87;;
15502;SDS011;7853;52.186;5.948;2023-07-13T04:19:35;5.01;;;2.22;;
15502;SDS011;7853;52.186;5.948;2023-07-13T04:20:35;5.34;;;2.04;;
15502;SDS011;7853;52.186;5.948;2023-07-13T04:21:35;3.68;;;1.79;;
15502;SDS011;7853;52.186;5.948;2023-07-13T04:22:34;3.63;;;2.01;;
15502;SDS011;7853;52.186;5.948;2023-07-13T04:23:35;4.79;;;2.01;;
15502;SDS011;7853;52.186;5.948;2023-07-13T04:24:35;5.87;;;2.15;;
15502;SDS011;7853;52.186;5.948;2023-07-13T04:25:35;5.13;;;2.20;;
15502;SDS011;7853;52.186;5.948;2023-07-13T04:26:35;5.36;;;2.10;;
15502;SDS011;7853;52.186;5.948;2023-07-13T04:27:34;5.42;;;2.13;;
15502;SDS011;7853;52.186;5.948;2023-07-13T04:28:35;5.66;;;2.19;;
15502;SDS011;7853;52.186;5.948;2023-07-13T04:29:34;4.32;;;2.12;;
15502;SDS011;7853;52.186;5.948;2023-07-13T04:30:35;5.45;;;2.19;;
15502;SDS011;7853;52.186;5.948;2023-07-13T04:31:35;5.92;;;2.11;;
15502;SDS011;7853;52.186;5.948;2023-07-13T04:32:35;5.54;;;2.18;;
15502;SDS011;7853;52.186;5.948;2023-07-13T04:33:34;5.68;;;2.24;;
15502;SDS011;7853;52.186;5.948;2023-07-13T04:34:34;4.81;;;2.05;;
15502;SDS011;7853;52.186;5.948;2023-07-13T04:35:35;3.79;;;2.08;;
15502;SDS011;7853;52.186;5.948;2023-07-13T04:36:35;5.86;;;2.23;;
15502;SDS011;7853;52.186;5.948;2023-07-13T04:37:35;5.03;;;2.44;;
15502;SDS011;7853;52.186;5.948;2023-07-13T04:38:35;5.91;;;2.12;;
15502;SDS011;7853;52.186;5.948;2023-07-13T04:39:35;8.23;;;2.32;;
15502;SDS011;7853;52.186;5.948;2023-07-13T04:40:35;6.02;;;2.30;;
15502;SDS011;7853;52.186;5.948;2023-07-13T04:41:35;4.85;;;2.20;;
15502;SDS011;7853;52.186;5.948;2023-07-13T04:42:35;5.06;;;2.15;;
15502;SDS011;7853;52.186;5.948;2023-07-13T04:43:35;5.61;;;2.35;;
15502;SDS011;7853;52.186;5.948;2023-07-13T04:44:34;5.92;;;2.13;;
15502;SDS011;7853;52.186;5.948;2023-07-13T04:45:35;5.43;;;2.34;;
15502;SDS011;7853;52.186;5.948;2023-07-13T04:46:34;5.46;;;2.44;;
15502;SDS011;7853;52.186;5.948;2023-07-13T04:47:35;6.24;;;2.34;;
15502;SDS011;7853;52.186;5.948;2023-07-13T04:48:35;6.45;;;2.45;;
15502;SDS011;7853;52.186;5.948;2023-07-13T04:49:34;5.40;;;2.33;;
15502;SDS011;7853;52.186;5.948;2023-07-13T04:50:35;6.25;;;2.58;;
15502;SDS011;7853;52.186;5.948;2023-07-13T04:51:35;7.33;;;2.51;;
15502;SDS011;7853;52.186;5.948;2023-07-13T04:52:34;6.36;;;2.38;;
15502;SDS011;7853;52.186;5.948;2023-07-13T04:53:35;5.41;;;2.41;;
15502;SDS011;7853;52.186;5.948;2023-07-13T04:54:35;7.85;;;2.71;;
15502;SDS011;7853;52.186;5.948;2023-07-13T04:55:35;5.95;;;2.30;;
15502;SDS011;7853;52.186;5.948;2023-07-13T04:56:34;6.83;;;2.62;;
15502;SDS011;7853;52.186;5.948;2023-07-13T04:57:35;6.82;;;2.64;;
15502;SDS011;7853;52.186;5.948;2023-07-13T04:58:35;5.74;;;2.31;;
15502;SDS011;7853;52.186;5.948;2023-07-13T04:59:35;4.88;;;2.24;;
15502;SDS011;7853;52.186;5.948;2023-07-13T05:00:35;6.16;;;2.48;;
15502;SDS011;7853;52.186;5.948;2023-07-13T05:01:34;6.11;;;2.44;;
15502;SDS011;7853;52.186;5.948;2023-07-13T05:02:35;6.59;;;2.54;;
15502;SDS011;7853;52.186;5.948;2023-07-13T05:03:34;6.44;;;2.60;;
15502;SDS011;7853;52.186;5.948;2023-07-13T05:04:34;4.57;;;2.52;;
15502;SDS011;7853;52.186;5.948;2023-07-13T05:05:35;6.49;;;2.71;;
15502;SDS011;7853;52.186;5.948;2023-07-13T05:06:35;7.46;;;2.50;;
15502;SDS011;7853;52.186;5.948;2023-07-13T05:07:35;7.82;;;3.19;;
15502;SDS011;7853;52.186;5.948;2023-07-13T05:08:35;8.52;;;2.91;;
15502;SDS011;7853;52.186;5.948;2023-07-13T05:09:35;8.91;;;2.66;;
15502;SDS011;7853;52.186;5.948;2023-07-13T05:10:35;9.11;;;2.84;;
15502;SDS011;7853;52.186;5.948;2023-07-13T05:11:35;7.57;;;2.82;;
15502;SDS011;7853;52.186;5.948;2023-07-13T05:12:35;5.05;;;2.37;;
15502;SDS011;7853;52.186;5.948;2023-07-13T05:13:35;8.28;;;2.88;;
15502;SDS011;7853;52.186;5.948;2023-07-13T05:14:35;7.12;;;2.75;;
15502;SDS011;7853;52.186;5.948;2023-07-13T05:15:35;7.64;;;3.24;;
15502;SDS011;7853;52.186;5.948;2023-07-13T05:16:35;7.34;;;3.12;;
15502;SDS011;7853;52.186;5.948;2023-07-13T05:17:35;7.54;;;2.62;;
15502;SDS011;7853;52.186;5.948;2023-07-13T05:18:35;9.51;;;2.91;;
15502;SDS011;7853;52.186;5.948;2023-07-13T05:19:35;10.04;;;3.18;;
15502;SDS011;7853;52.186;5.948;2023-07-13T05:20:35;7.70;;;3.12;;
15502;SDS011;7853;52.186;5.948;2023-07-13T05:21:35;8.47;;;3.10;;
15502;SDS011;7853;52.186;5.948;2023-07-13T05:22:35;7.89;;;3.28;;
15502;SDS011;7853;52.186;5.948;2023-07-13T05:23:35;8.44;;;3.19;;
15502;SDS011;7853;52.186;5.948;2023-07-13T05:24:35;8.55;;;3.32;;
15502;SDS011;7853;52.186;5.948;2023-07-13T05:25:35;7.41;;;2.86;;
15502;SDS011;7853;52.186;5.948;2023-07-13T05:26:35;6.77;;;3.23;;
15502;SDS011;7853;52.186;5.948;2023-07-13T05:27:35;7.67;;;3.26;;
15502;SDS011;7853;52.186;5.948;2023-07-13T05:28:35;8.00;;;3.02;;
15502;SDS011;7853;52.186;5.948;2023-07-13T05:29:34;9.89;;;3.31;;
15502;SDS011;7853;52.186;5.948;2023-07-13T05:30:34;7.29;;;3.04;;
15502;SDS011;7853;52.186;5.948;2023-07-13T05:31:35;9.14;;;3.42;;
15502;SDS011;7853;52.186;5.948;2023-07-13T05:32:34;7.51;;;2.86;;
15502;SDS011;7853;52.186;5.948;2023-07-13T05:33:35;7.54;;;3.47;;
15502;SDS011;7853;52.186;5.948;2023-07-13T05:34:35;6.72;;;3.06;;
15502;SDS011;7853;52.186;5.948;2023-07-13T05:35:34;8.63;;;2.99;;
15502;SDS011;7853;52.186;5.948;2023-07-13T05:36:34;6.51;;;3.09;;
15502;SDS011;7853;52.186;5.948;2023-07-13T05:37:37;6.42;;;2.65;;
15502;SDS011;7853;52.186;5.948;2023-07-13T05:38:35;9.54;;;3.46;;
15502;SDS011;7853;52.186;5.948;2023-07-13T05:39:35;9.91;;;3.96;;
15502;SDS011;7853;52.186;5.948;2023-07-13T05:40:34;8.66;;;3.70;;
15502;SDS011;7853;52.186;5.948;2023-07-13T05:41:35;6.58;;;3.38;;
15502;SDS011;7853;52.186;5.948;2023-07-13T05:42:36;7.09;;;3.04;;
15502;SDS011;7853;52.186;5.948;2023-07-13T05:43:42;7.09;;;3.29;;
15502;SDS011;7853;52.186;5.948;2023-07-13T05:44:30;6.16;;;2.93;;
15502;SDS011;7853;52.186;5.948;2023-07-13T05:45:32;7.51;;;3.53;;
15502;SDS011;7853;52.186;5.948;2023-07-13T05:46:33;7.28;;;3.31;;
15502;SDS011;7853;52.186;5.948;2023-07-13T05:47:34;8.63;;;3.71;;
15502;SDS011;7853;52.186;5.948;2023-07-13T05:48:34;8.67;;;3.91;;
15502;SDS011;7853;52.186;5.948;2023-07-13T05:49:34;10.61;;;3.95;;
15502;SDS011;7853;52.186;5.948;2023-07-13T05:50:34;11.07;;;4.37;;
15502;SDS011;7853;52.186;5.948;2023-07-13T05:51:34;8.92;;;4.04;;
15502;SDS011;7853;52.186;5.948;2023-07-13T05:52:35;6.85;;;3.59;;
15502;SDS011;7853;52.186;5.948;2023-07-13T05:53:35;9.40;;;4.03;;
15502;SDS011;7853;52.186;5.948;2023-07-13T05:54:35;8.47;;;3.74;;
15502;SDS011;7853;52.186;5.948;2023-07-13T05:55:35;5.66;;;3.12;;
15502;SDS011;7853;52.186;5.948;2023-07-13T05:56:35;8.34;;;3.80;;
15502;SDS011;7853;52.186;5.948;2023-07-13T05:57:35;10.75;;;4.12;;
15502;SDS011;7853;52.186;5.948;2023-07-13T05:58:35;10.08;;;4.01;;
15502;SDS011;7853;52.186;5.948;2023-07-13T05:59:35;8.61;;;3.64;;
15502;SDS011;7853;52.186;5.948;2023-07-13T06:00:35;8.47;;;4.03;;
15502;SDS011;7853;52.186;5.948;2023-07-13T06:01:35;8.35;;;3.82;;
15502;SDS011;7853;52.186;5.948;2023-07-13T06:02:35;8.59;;;3.89;;
15502;SDS011;7853;52.186;5.948;2023-07-13T06:03:35;8.47;;;3.69;;
15502;SDS011;7853;52.186;5.948;2023-07-13T06:04:35;8.28;;;4.01;;
15502;SDS011;7853;52.186;5.948;2023-07-13T06:05:35;11.15;;;4.35;;
15502;SDS011;7853;52.186;5.948;2023-07-13T06:06:35;8.66;;;4.20;;
15502;SDS011;7853;52.186;5.948;2023-07-13T06:07:35;6.64;;;3.67;;
15502;SDS011;7853;52.186;5.948;2023-07-13T06:08:35;7.62;;;3.76;;